sensor_id;sensor_type;location;lat;lon;timestamp;temperature;humidity
6252;DHT22;3159;52.414;9.784;2023-05-07T00:00:48;10.90;99.90
6252;DHT22;3159;52.414;9.784;2023-05-07T00:03:16;10.90;99.90
6252;DHT22;3159;52.414;9.784;2023-05-07T00:05:44;11.10;99.90
6252;DHT22;3159;52.414;9.784;2023-05-07T00:08:13;11.40;99.90
6252;DHT22;3159;52.414;9.784;2023-05-07T00:10:41;11.20;99.90
6252;DHT22;3159;52.414;9.784;2023-05-07T00:13:08;11.10;99.90
6252;DHT22;3159;52.414;9.784;2023-05-07T00:15:35;11.00;99.90
6252;DHT22;3159;52.414;9.784;2023-05-07T00:18:02;11.00;99.90
6252;DHT22;3159;52.414;9.784;2023-05-07T00:20:29;11.10;99.90
6252;DHT22;3159;52.414;9.784;2023-05-07T00:22:55;11.10;99.90
6252;DHT22;3159;52.414;9.784;2023-05-07T00:25:24;10.90;99.90
6252;DHT22;3159;52.414;9.784;2023-05-07T00:27:51;10.90;99.90
6252;DHT22;3159;52.414;9.784;2023-05-07T00:30:18;10.70;99.90
6252;DHT22;3159;52.414;9.784;2023-05-07T00:32:45;10.90;99.90
6252;DHT22;3159;52.414;9.784;2023-05-07T00:35:14;11.00;99.90
6252;DHT22;3159;52.414;9.784;2023-05-07T00:37:41;10.60;99.90
6252;DHT22;3159;52.414;9.784;2023-05-07T00:40:08;10.80;99.90
6252;DHT22;3159;52.414;9.784;2023-05-07T00:42:38;11.00;99.90
6252;DHT22;3159;52.414;9.784;2023-05-07T00:45:06;10.90;99.90
6252;DHT22;3159;52.414;9.784;2023-05-07T00:47:33;11.20;99.90
6252;DHT22;3159;52.414;9.784;2023-05-07T00:50:00;11.30;99.90
6252;DHT22;3159;52.414;9.784;2023-05-07T00:52:27;11.20;99.90
6252;DHT22;3159;52.414;9.784;2023-05-07T00:54:55;11.20;99.90
6252;DHT22;3159;52.414;9.784;2023-05-07T00:57:24;11.00;99.90
6252;DHT22;3159;52.414;9.784;2023-05-07T00:59:52;10.70;99.90
6252;DHT22;3159;52.414;9.784;2023-05-07T01:02:19;10.60;99.90
6252;DHT22;3159;52.414;9.784;2023-05-07T01:04:46;10.90;99.90
6252;DHT22;3159;52.414;9.784;2023-05-07T01:07:13;10.50;99.90
6252;DHT22;3159;52.414;9.784;2023-05-07T01:09:40;10.30;99.90
6252;DHT22;3159;52.414;9.784;2023-05-07T01:12:07;10.60;99.90
6252;DHT22;3159;52.414;9.784;2023-05-07T01:14:35;10.90;99.90
6252;DHT22;3159;52.414;9.784;2023-05-07T01:17:03;10.90;99.90
6252;DHT22;3159;52.414;9.784;2023-05-07T01:19:31;10.60;99.90
6252;DHT22;3159;52.414;9.784;2023-05-07T01:22:02;10.60;99.90
6252;DHT22;3159;52.414;9.784;2023-05-07T01:24:31;10.50;99.90
6252;DHT22;3159;52.414;9.784;2023-05-07T01:26:59;10.30;99.90
6252;DHT22;3159;52.414;9.784;2023-05-07T01:29:27;10.70;99.90
6252;DHT22;3159;52.414;9.784;2023-05-07T01:31:55;10.50;99.90
6252;DHT22;3159;52.414;9.784;2023-05-07T01:34:25;10.60;99.90
6252;DHT22;3159;52.414;9.784;2023-05-07T01:36:54;10.40;99.90
6252;DHT22;3159;52.414;9.784;2023-05-07T01:39:25;10.30;99.90
6252;DHT22;3159;52.414;9.784;2023-05-07T01:41:54;10.30;99.90
6252;DHT22;3159;52.414;9.784;2023-05-07T01:44:22;10.50;99.90
6252;DHT22;3159;52.414;9.784;2023-05-07T01:46:49;10.40;99.90
6252;DHT22;3159;52.414;9.784;2023-05-07T01:49:17;10.40;99.90
6252;DHT22;3159;52.414;9.784;2023-05-07T01:51:44;10.20;99.90
6252;DHT22;3159;52.414;9.784;2023-05-07T01:54:11;10.50;99.90
6252;DHT22;3159;52.414;9.784;2023-05-07T01:56:38;10.40;99.90
6252;DHT22;3159;52.414;9.784;2023-05-07T01:59:07;10.40;99.90
6252;DHT22;3159;52.414;9.784;2023-05-07T02:01:34;10.30;99.90
6252;DHT22;3159;52.414;9.784;2023-05-07T02:04:01;10.60;99.90
6252;DHT22;3159;52.414;9.784;2023-05-07T02:06:27;10.60;99.90
6252;DHT22;3159;52.414;9.784;2023-05-07T02:08:54;10.80;99.90
6252;DHT22;3159;52.414;9.784;2023-05-07T02:11:21;10.80;99.90
6252;DHT22;3159;52.414;9.784;2023-05-07T02:13:48;10.60;99.90
6252;DHT22;3159;52.414;9.784;2023-05-07T02:16:16;10.50;99.90
6252;DHT22;3159;52.414;9.784;2023-05-07T02:18:44;10.80;99.90
6252;DHT22;3159;52.414;9.784;2023-05-07T02:21:11;10.70;99.90
6252;DHT22;3159;52.414;9.784;2023-05-07T02:23:38;10.40;99.90
6252;DHT22;3159;52.414;9.784;2023-05-07T02:26:05;10.60;99.90
6252;DHT22;3159;52.414;9.784;2023-05-07T02:28:32;10.30;99.90
6252;DHT22;3159;52.414;9.784;2023-05-07T02:31:02;10.20;99.90
6252;DHT22;3159;52.414;9.784;2023-05-07T02:33:30;10.40;99.90
6252;DHT22;3159;52.414;9.784;2023-05-07T02:36:05;10.40;99.90
6252;DHT22;3159;52.414;9.784;2023-05-07T02:38:32;10.40;99.90
6252;DHT22;3159;52.414;9.784;2023-05-07T02:40:59;10.30;99.90
6252;DHT22;3159;52.414;9.784;2023-05-07T02:43:26;10.40;99.90
6252;DHT22;3159;52.414;9.784;2023-05-07T02:46:00;10.10;99.90
6252;DHT22;3159;52.414;9.784;2023-05-07T02:48:29;10.20;99.90
6252;DHT22;3159;52.414;9.784;2023-05-07T02:50:56;10.40;99.90
6252;DHT22;3159;52.414;9.784;2023-05-07T02:53:23;10.40;99.90
6252;DHT22;3159;52.414;9.784;2023-05-07T02:55:52;10.30;99.90
6252;DHT22;3159;52.414;9.784;2023-05-07T02:58:19;10.30;99.90
6252;DHT22;3159;52.414;9.784;2023-05-07T03:00:46;10.40;99.90
6252;DHT22;3159;52.414;9.784;2023-05-07T03:03:13;10.50;99.90
6252;DHT22;3159;52.414;9.784;2023-05-07T03:05:42;10.40;99.90
6252;DHT22;3159;52.414;9.784;2023-05-07T03:08:10;10.30;99.90
6252;DHT22;3159;52.414;9.784;2023-05-07T03:10:37;10.10;99.90
6252;DHT22;3159;52.414;9.784;2023-05-07T03:13:04;10.30;99.90
6252;DHT22;3159;52.414;9.784;2023-05-07T03:15:31;10.40;99.90
6252;DHT22;3159;52.414;9.784;2023-05-07T03:17:58;10.30;99.90
6252;DHT22;3159;52.414;9.784;2023-05-07T03:20:25;10.30;99.90
6252;DHT22;3159;52.414;9.784;2023-05-07T03:22:54;10.10;99.90
6252;DHT22;3159;52.414;9.784;2023-05-07T03:25:21;10.30;99.90
6252;DHT22;3159;52.414;9.784;2023-05-07T03:27:47;10.30;99.90
6252;DHT22;3159;52.414;9.784;2023-05-07T03:30:14;10.40;99.90
6252;DHT22;3159;52.414;9.784;2023-05-07T03:32:41;10.10;99.90
6252;DHT22;3159;52.414;9.784;2023-05-07T03:35:08;9.90;99.90
6252;DHT22;3159;52.414;9.784;2023-05-07T03:37:35;10.10;99.90
6252;DHT22;3159;52.414;9.784;2023-05-07T03:40:05;10.00;99.90
6252;DHT22;3159;52.414;9.784;2023-05-07T03:42:32;9.90;99.90
6252;DHT22;3159;52.414;9.784;2023-05-07T03:44:59;9.90;99.90
6252;DHT22;3159;52.414;9.784;2023-05-07T03:47:26;10.00;99.90
6252;DHT22;3159;52.414;9.784;2023-05-07T03:49:52;10.10;99.90
6252;DHT22;3159;52.414;9.784;2023-05-07T03:52:20;10.30;99.90
6252;DHT22;3159;52.414;9.784;2023-05-07T03:54:51;10.40;99.90
6252;DHT22;3159;52.414;9.784;2023-05-07T03:57:19;10.40;99.90
6252;DHT22;3159;52.414;9.784;2023-05-07T03:59:46;10.50;99.90
6252;DHT22;3159;52.414;9.784;2023-05-07T04:02:13;10.60;99.90
6252;DHT22;3159;52.414;9.784;2023-05-07T04:04:40;10.40;99.90
6252;DHT22;3159;52.414;9.784;2023-05-07T04:07:07;10.30;99.90
6252;DHT22;3159;52.414;9.784;2023-05-07T04:09:35;10.00;99.90
6252;DHT22;3159;52.414;9.784;2023-05-07T04:12:02;9.90;99.90
6252;DHT22;3159;52.414;9.784;2023-05-07T04:14:30;9.90;99.90
6252;DHT22;3159;52.414;9.784;2023-05-07T04:16:58;9.90;99.90
6252;DHT22;3159;52.414;9.784;2023-05-07T04:19:25;10.20;99.90
6252;DHT22;3159;52.414;9.784;2023-05-07T04:21:52;10.30;99.90
6252;DHT22;3159;52.414;9.784;2023-05-07T04:24:19;10.20;99.90
6252;DHT22;3159;52.414;9.784;2023-05-07T04:26:46;10.10;99.90
6252;DHT22;3159;52.414;9.784;2023-05-07T04:29:13;10.10;99.90
6252;DHT22;3159;52.414;9.784;2023-05-07T04:31:41;10.20;99.90
6252;DHT22;3159;52.414;9.784;2023-05-07T04:34:09;10.20;99.90
6252;DHT22;3159;52.414;9.784;2023-05-07T04:36:37;10.40;99.90
6252;DHT22;3159;52.414;9.784;2023-05-07T04:39:04;10.40;99.90
6252;DHT22;3159;52.414;9.784;2023-05-07T04:41:32;10.10;99.90
6252;DHT22;3159;52.414;9.784;2023-05-07T04:43:59;10.10;99.90
6252;DHT22;3159;52.414;9.784;2023-05-07T04:46:25;10.00;99.90
6252;DHT22;3159;52.414;9.784;2023-05-07T04:48:54;10.10;99.90
6252;DHT22;3159;52.414;9.784;2023-05-07T04:51:21;10.30;99.90
6252;DHT22;3159;52.414;9.784;2023-05-07T04:53:48;10.40;99.90
6252;DHT22;3159;52.414;9.784;2023-05-07T04:56:15;10.60;99.90
6252;DHT22;3159;52.414;9.784;2023-05-07T04:58:42;10.30;99.90
6252;DHT22;3159;52.414;9.784;2023-05-07T05:01:08;10.30;99.90
6252;DHT22;3159;52.414;9.784;2023-05-07T05:03:36;10.30;99.90
6252;DHT22;3159;52.414;9.784;2023-05-07T05:06:05;10.10;99.90
6252;DHT22;3159;52.414;9.784;2023-05-07T05:08:32;10.00;99.90
6252;DHT22;3159;52.414;9.784;2023-05-07T05:11:00;10.10;99.90
6252;DHT22;3159;52.414;9.784;2023-05-07T05:13:27;10.00;99.90
6252;DHT22;3159;52.414;9.784;2023-05-07T05:15:54;9.80;99.90
6252;DHT22;3159;52.414;9.784;2023-05-07T05:18:22;9.80;99.90
6252;DHT22;3159;52.414;9.784;2023-05-07T05:20:49;9.90;99.90
6252;DHT22;3159;52.414;9.784;2023-05-07T05:23:17;9.80;99.90
6252;DHT22;3159;52.414;9.784;2023-05-07T05:25:44;9.90;99.90
6252;DHT22;3159;52.414;9.784;2023-05-07T05:28:11;10.10;99.90
6252;DHT22;3159;52.414;9.784;2023-05-07T05:30:39;9.80;99.90
6252;DHT22;3159;52.414;9.784;2023-05-07T05:33:06;10.00;99.90
6252;DHT22;3159;52.414;9.784;2023-05-07T05:35:33;10.00;99.90
6252;DHT22;3159;52.414;9.784;2023-05-07T05:38:00;9.70;99.90
6252;DHT22;3159;52.414;9.784;2023-05-07T05:40:29;9.90;99.90
6252;DHT22;3159;52.414;9.784;2023-05-07T05:42:56;9.80;99.90
6252;DHT22;3159;52.414;9.784;2023-05-07T05:45:22;9.80;99.90
6252;DHT22;3159;52.414;9.784;2023-05-07T05:47:49;9.80;99.90
6252;DHT22;3159;52.414;9.784;2023-05-07T05:50:17;10.00;99.90
6252;DHT22;3159;52.414;9.784;2023-05-07T05:52:44;10.20;99.90
6252;DHT22;3159;52.414;9.784;2023-05-07T05:55:11;10.30;99.90
6252;DHT22;3159;52.414;9.784;2023-05-07T05:57:39;10.00;99.90
6252;DHT22;3159;52.414;9.784;2023-05-07T06:00:07;10.20;99.90
6252;DHT22;3159;52.414;9.784;2023-05-07T06:02:34;10.10;99.90
6252;DHT22;3159;52.414;9.784;2023-05-07T06:05:01;10.30;99.90
6252;DHT22;3159;52.414;9.784;2023-05-07T06:07:28;10.10;99.90
6252;DHT22;3159;52.414;9.784;2023-05-07T06:09:55;10.20;99.90
6252;DHT22;3159;52.414;9.784;2023-05-07T06:12:22;10.40;99.90
6252;DHT22;3159;52.414;9.784;2023-05-07T06:14:50;10.20;99.90
6252;DHT22;3159;52.414;9.784;2023-05-07T06:17:17;10.30;99.90
6252;DHT22;3159;52.414;9.784;2023-05-07T06:19:44;10.40;99.90
6252;DHT22;3159;52.414;9.784;2023-05-07T06:22:11;10.20;99.90
6252;DHT22;3159;52.414;9.784;2023-05-07T06:24:38;10.20;99.90
6252;DHT22;3159;52.414;9.784;2023-05-07T06:27:05;10.30;99.90
6252;DHT22;3159;52.414;9.784;2023-05-07T06:29:32;10.30;99.90
6252;DHT22;3159;52.414;9.784;2023-05-07T06:32:07;10.30;99.90
6252;DHT22;3159;52.414;9.784;2023-05-07T06:34:34;10.20;99.90
6252;DHT22;3159;52.414;9.784;2023-05-07T06:37:02;10.40;99.90
6252;DHT22;3159;52.414;9.784;2023-05-07T06:39:29;10.30;99.90
6252;DHT22;3159;52.414;9.784;2023-05-07T06:41:55;10.40;99.90
6252;DHT22;3159;52.414;9.784;2023-05-07T06:44:22;10.30;99.90
6252;DHT22;3159;52.414;9.784;2023-05-07T06:46:49;10.50;99.90
6252;DHT22;3159;52.414;9.784;2023-05-07T06:49:17;10.50;99.90
6252;DHT22;3159;52.414;9.784;2023-05-07T06:51:44;10.40;99.90
6252;DHT22;3159;52.414;9.784;2023-05-07T06:54:11;10.50;99.90
6252;DHT22;3159;52.414;9.784;2023-05-07T06:56:38;10.50;99.90
6252;DHT22;3159;52.414;9.784;2023-05-07T06:59:06;10.50;99.90
6252;DHT22;3159;52.414;9.784;2023-05-07T07:01:33;10.50;99.90
6252;DHT22;3159;52.414;9.784;2023-05-07T07:04:00;10.40;99.90
6252;DHT22;3159;52.414;9.784;2023-05-07T07:06:28;10.40;99.90
6252;DHT22;3159;52.414;9.784;2023-05-07T07:08:57;10.30;99.90
6252;DHT22;3159;52.414;9.784;2023-05-07T07:11:24;10.30;99.90
6252;DHT22;3159;52.414;9.784;2023-05-07T07:13:51;10.30;99.90
6252;DHT22;3159;52.414;9.784;2023-05-07T07:16:19;10.40;99.90
6252;DHT22;3159;52.414;9.784;2023-05-07T07:18:46;10.50;99.90
6252;DHT22;3159;52.414;9.784;2023-05-07T07:21:13;10.50;99.90
6252;DHT22;3159;52.414;9.784;2023-05-07T07:23:42;10.30;99.90
6252;DHT22;3159;52.414;9.784;2023-05-07T07:26:09;10.30;99.90
6252;DHT22;3159;52.414;9.784;2023-05-07T07:28:42;10.40;99.90
6252;DHT22;3159;52.414;9.784;2023-05-07T07:31:09;10.80;99.90
6252;DHT22;3159;52.414;9.784;2023-05-07T07:33:36;10.90;99.90
6252;DHT22;3159;52.414;9.784;2023-05-07T07:36:04;11.00;99.90
6252;DHT22;3159;52.414;9.784;2023-05-07T07:38:31;10.60;99.90
6252;DHT22;3159;52.414;9.784;2023-05-07T07:41:00;10.60;99.90
6252;DHT22;3159;52.414;9.784;2023-05-07T07:43:27;11.00;99.90
6252;DHT22;3159;52.414;9.784;2023-05-07T07:45:54;11.00;99.90
6252;DHT22;3159;52.414;9.784;2023-05-07T07:48:21;11.30;99.90
6252;DHT22;3159;52.414;9.784;2023-05-07T07:50:49;11.10;99.90
6252;DHT22;3159;52.414;9.784;2023-05-07T07:53:16;11.40;99.90
6252;DHT22;3159;52.414;9.784;2023-05-07T07:55:43;11.20;99.90
6252;DHT22;3159;52.414;9.784;2023-05-07T07:58:12;11.00;99.90
6252;DHT22;3159;52.414;9.784;2023-05-07T08:00:39;11.00;99.90
6252;DHT22;3159;52.414;9.784;2023-05-07T08:03:06;11.00;99.90
6252;DHT22;3159;52.414;9.784;2023-05-07T08:05:35;11.20;99.90
6252;DHT22;3159;52.414;9.784;2023-05-07T08:08:04;11.30;99.90
6252;DHT22;3159;52.414;9.784;2023-05-07T08:10:31;11.10;99.90
6252;DHT22;3159;52.414;9.784;2023-05-07T08:13:00;11.20;99.90
6252;DHT22;3159;52.414;9.784;2023-05-07T08:15:28;11.20;99.90
6252;DHT22;3159;52.414;9.784;2023-05-07T08:17:55;11.50;99.90
6252;DHT22;3159;52.414;9.784;2023-05-07T08:20:23;11.50;99.90
6252;DHT22;3159;52.414;9.784;2023-05-07T08:22:50;11.40;99.90
6252;DHT22;3159;52.414;9.784;2023-05-07T08:25:17;11.30;99.90
6252;DHT22;3159;52.414;9.784;2023-05-07T08:27:45;11.50;99.90
6252;DHT22;3159;52.414;9.784;2023-05-07T08:30:13;11.70;99.90
6252;DHT22;3159;52.414;9.784;2023-05-07T08:32:41;11.60;99.90
6252;DHT22;3159;52.414;9.784;2023-05-07T08:35:09;11.40;99.90
6252;DHT22;3159;52.414;9.784;2023-05-07T08:37:36;11.30;99.90
6252;DHT22;3159;52.414;9.784;2023-05-07T08:40:05;11.30;99.90
6252;DHT22;3159;52.414;9.784;2023-05-07T08:42:35;11.70;99.90
6252;DHT22;3159;52.414;9.784;2023-05-07T08:45:04;11.60;99.90
6252;DHT22;3159;52.414;9.784;2023-05-07T08:47:43;11.40;99.90
6252;DHT22;3159;52.414;9.784;2023-05-07T08:50:11;11.50;99.90
6252;DHT22;3159;52.414;9.784;2023-05-07T08:52:39;11.80;99.90
6252;DHT22;3159;52.414;9.784;2023-05-07T08:55:07;11.40;99.90
6252;DHT22;3159;52.414;9.784;2023-05-07T08:57:34;11.40;99.90
6252;DHT22;3159;52.414;9.784;2023-05-07T09:00:02;11.80;99.90
6252;DHT22;3159;52.414;9.784;2023-05-07T09:02:29;11.50;99.90
6252;DHT22;3159;52.414;9.784;2023-05-07T09:04:58;11.40;99.90
6252;DHT22;3159;52.414;9.784;2023-05-07T09:07:25;11.40;99.90
6252;DHT22;3159;52.414;9.784;2023-05-07T09:09:52;11.40;99.90
6252;DHT22;3159;52.414;9.784;2023-05-07T09:12:21;11.30;99.90
6252;DHT22;3159;52.414;9.784;2023-05-07T09:14:48;11.50;99.90
6252;DHT22;3159;52.414;9.784;2023-05-07T09:17:15;11.50;99.90
6252;DHT22;3159;52.414;9.784;2023-05-07T09:19:43;11.50;99.90
6252;DHT22;3159;52.414;9.784;2023-05-07T09:22:12;11.50;99.90
6252;DHT22;3159;52.414;9.784;2023-05-07T09:24:39;11.50;99.90
6252;DHT22;3159;52.414;9.784;2023-05-07T09:27:07;11.70;99.90
6252;DHT22;3159;52.414;9.784;2023-05-07T09:29:35;11.50;99.90
6252;DHT22;3159;52.414;9.784;2023-05-07T09:32:03;11.80;99.90
6252;DHT22;3159;52.414;9.784;2023-05-07T09:34:30;11.70;99.90
6252;DHT22;3159;52.414;9.784;2023-05-07T09:36:58;11.70;99.90
6252;DHT22;3159;52.414;9.784;2023-05-07T09:39:38;11.60;99.90
6252;DHT22;3159;52.414;9.784;2023-05-07T09:42:05;11.60;99.90
6252;DHT22;3159;52.414;9.784;2023-05-07T09:44:33;12.00;99.90
6252;DHT22;3159;52.414;9.784;2023-05-07T09:47:00;11.90;99.90
6252;DHT22;3159;52.414;9.784;2023-05-07T09:49:29;11.70;99.90
6252;DHT22;3159;52.414;9.784;2023-05-07T09:51:56;11.60;99.90
6252;DHT22;3159;52.414;9.784;2023-05-07T09:54:24;11.80;99.90
6252;DHT22;3159;52.414;9.784;2023-05-07T09:56:55;11.60;99.90
6252;DHT22;3159;52.414;9.784;2023-05-07T09:59:22;11.70;99.90
6252;DHT22;3159;52.414;9.784;2023-05-07T10:01:51;12.00;99.90
6252;DHT22;3159;52.414;9.784;2023-05-07T10:04:20;12.20;99.90
6252;DHT22;3159;52.414;9.784;2023-05-07T10:06:47;12.20;99.90
6252;DHT22;3159;52.414;9.784;2023-05-07T10:09:15;12.00;99.90
6252;DHT22;3159;52.414;9.784;2023-05-07T10:11:42;12.20;99.90
6252;DHT22;3159;52.414;9.784;2023-05-07T10:14:10;12.30;99.90
6252;DHT22;3159;52.414;9.784;2023-05-07T10:16:37;12.40;99.90
6252;DHT22;3159;52.414;9.784;2023-05-07T10:19:05;12.50;99.90
6252;DHT22;3159;52.414;9.784;2023-05-07T10:21:36;12.50;99.90
6252;DHT22;3159;52.414;9.784;2023-05-07T10:24:05;12.10;99.90
6252;DHT22;3159;52.414;9.784;2023-05-07T10:26:35;12.10;99.90
6252;DHT22;3159;52.414;9.784;2023-05-07T10:29:05;12.20;99.90
6252;DHT22;3159;52.414;9.784;2023-05-07T10:31:48;12.30;99.90
6252;DHT22;3159;52.414;9.784;2023-05-07T10:34:20;12.50;99.90
6252;DHT22;3159;52.414;9.784;2023-05-07T10:36:48;12.70;99.90
6252;DHT22;3159;52.414;9.784;2023-05-07T10:39:16;12.90;99.90
6252;DHT22;3159;52.414;9.784;2023-05-07T10:41:42;12.50;99.90
6252;DHT22;3159;52.414;9.784;2023-05-07T10:44:09;12.60;99.90
6252;DHT22;3159;52.414;9.784;2023-05-07T10:46:38;12.70;99.90
6252;DHT22;3159;52.414;9.784;2023-05-07T10:49:09;12.90;99.90
6252;DHT22;3159;52.414;9.784;2023-05-07T10:51:37;13.00;99.90
6252;DHT22;3159;52.414;9.784;2023-05-07T10:54:22;12.90;99.90
6252;DHT22;3159;52.414;9.784;2023-05-07T10:56:52;13.30;99.90
6252;DHT22;3159;52.414;9.784;2023-05-07T10:59:35;13.30;99.90
6252;DHT22;3159;52.414;9.784;2023-05-07T11:02:09;13.00;99.90
6252;DHT22;3159;52.414;9.784;2023-05-07T11:04:37;12.70;99.90
6252;DHT22;3159;52.414;9.784;2023-05-07T11:10:03;12.60;99.90
6252;DHT22;3159;52.414;9.784;2023-05-07T11:12:53;12.90;99.90
6252;DHT22;3159;52.414;9.784;2023-05-07T11:15:40;13.20;99.90
6252;DHT22;3159;52.414;9.784;2023-05-07T11:18:11;13.50;99.90
6252;DHT22;3159;52.414;9.784;2023-05-07T11:20:59;13.80;99.90
6252;DHT22;3159;52.414;9.784;2023-05-07T11:23:57;13.90;99.90
6252;DHT22;3159;52.414;9.784;2023-05-07T11:26:25;14.20;99.90
6252;DHT22;3159;52.414;9.784;2023-05-07T11:28:52;13.60;99.90
6252;DHT22;3159;52.414;9.784;2023-05-07T11:31:21;13.90;99.90
6252;DHT22;3159;52.414;9.784;2023-05-07T11:33:52;14.30;99.90
6252;DHT22;3159;52.414;9.784;2023-05-07T11:36:21;13.90;99.90
6252;DHT22;3159;52.414;9.784;2023-05-07T11:38:48;14.20;99.90
6252;DHT22;3159;52.414;9.784;2023-05-07T11:41:16;14.10;99.90
6252;DHT22;3159;52.414;9.784;2023-05-07T11:43:56;13.70;99.90
6252;DHT22;3159;52.414;9.784;2023-05-07T11:46:23;14.20;99.90
6252;DHT22;3159;52.414;9.784;2023-05-07T11:48:52;14.20;99.90
6252;DHT22;3159;52.414;9.784;2023-05-07T11:51:19;14.00;99.90
6252;DHT22;3159;52.414;9.784;2023-05-07T11:53:46;14.40;99.90
6252;DHT22;3159;52.414;9.784;2023-05-07T11:56:15;14.60;99.90
6252;DHT22;3159;52.414;9.784;2023-05-07T11:58:43;14.50;99.90
6252;DHT22;3159;52.414;9.784;2023-05-07T12:01:11;14.30;99.90
6252;DHT22;3159;52.414;9.784;2023-05-07T12:03:40;14.50;99.90
6252;DHT22;3159;52.414;9.784;2023-05-07T12:06:10;14.30;99.90
6252;DHT22;3159;52.414;9.784;2023-05-07T12:08:39;14.40;99.90
6252;DHT22;3159;52.414;9.784;2023-05-07T12:11:10;14.50;99.90
6252;DHT22;3159;52.414;9.784;2023-05-07T12:13:39;14.10;99.90
6252;DHT22;3159;52.414;9.784;2023-05-07T12:16:06;14.30;99.90
6252;DHT22;3159;52.414;9.784;2023-05-07T12:18:35;14.50;99.90
6252;DHT22;3159;52.414;9.784;2023-05-07T12:21:02;14.40;99.90
6252;DHT22;3159;52.414;9.784;2023-05-07T12:23:32;14.30;99.90
6252;DHT22;3159;52.414;9.784;2023-05-07T12:26:00;14.20;99.90
6252;DHT22;3159;52.414;9.784;2023-05-07T12:28:27;14.40;99.90
6252;DHT22;3159;52.414;9.784;2023-05-07T12:30:54;13.90;99.90
6252;DHT22;3159;52.414;9.784;2023-05-07T12:33:25;14.20;99.90
6252;DHT22;3159;52.414;9.784;2023-05-07T12:35:54;14.40;99.90
6252;DHT22;3159;52.414;9.784;2023-05-07T12:38:22;13.80;99.90
6252;DHT22;3159;52.414;9.784;2023-05-07T12:40:53;13.60;99.90
6252;DHT22;3159;52.414;9.784;2023-05-07T12:43:24;14.20;99.90
6252;DHT22;3159;52.414;9.784;2023-05-07T12:45:53;13.80;99.90
6252;DHT22;3159;52.414;9.784;2023-05-07T12:48:21;14.00;99.90
6252;DHT22;3159;52.414;9.784;2023-05-07T12:50:49;14.30;99.90
6252;DHT22;3159;52.414;9.784;2023-05-07T12:53:17;14.20;99.90
6252;DHT22;3159;52.414;9.784;2023-05-07T12:55:47;13.80;99.90
6252;DHT22;3159;52.414;9.784;2023-05-07T12:58:17;13.90;99.90
6252;DHT22;3159;52.414;9.784;2023-05-07T13:00:45;13.60;99.90
6252;DHT22;3159;52.414;9.784;2023-05-07T13:03:21;13.90;99.90
6252;DHT22;3159;52.414;9.784;2023-05-07T13:05:48;13.90;99.90
6252;DHT22;3159;52.414;9.784;2023-05-07T13:08:24;13.90;99.90
6252;DHT22;3159;52.414;9.784;2023-05-07T13:10:51;13.70;99.90
6252;DHT22;3159;52.414;9.784;2023-05-07T13:13:20;13.70;99.90
6252;DHT22;3159;52.414;9.784;2023-05-07T13:15:47;13.70;99.90
6252;DHT22;3159;52.414;9.784;2023-05-07T13:18:14;13.80;99.90
6252;DHT22;3159;52.414;9.784;2023-05-07T13:20:41;13.70;99.90
6252;DHT22;3159;52.414;9.784;2023-05-07T13:23:08;13.90;99.90
6252;DHT22;3159;52.414;9.784;2023-05-07T13:25:35;14.20;99.90
6252;DHT22;3159;52.414;9.784;2023-05-07T13:28:01;14.60;99.90
6252;DHT22;3159;52.414;9.784;2023-05-07T13:30:31;14.10;99.90
6252;DHT22;3159;52.414;9.784;2023-05-07T13:32:58;14.20;99.90
6252;DHT22;3159;52.414;9.784;2023-05-07T13:35:25;14.10;99.90
6252;DHT22;3159;52.414;9.784;2023-05-07T13:37:52;14.40;99.90
6252;DHT22;3159;52.414;9.784;2023-05-07T13:40:20;14.20;99.90
6252;DHT22;3159;52.414;9.784;2023-05-07T13:42:47;14.30;99.90
6252;DHT22;3159;52.414;9.784;2023-05-07T13:45:14;14.00;99.90
6252;DHT22;3159;52.414;9.784;2023-05-07T13:47:42;14.10;99.90
6252;DHT22;3159;52.414;9.784;2023-05-07T13:50:10;14.00;99.90
6252;DHT22;3159;52.414;9.784;2023-05-07T13:52:39;14.30;99.90
6252;DHT22;3159;52.414;9.784;2023-05-07T13:55:08;14.10;99.90
6252;DHT22;3159;52.414;9.784;2023-05-07T13:57:35;14.00;99.90
6252;DHT22;3159;52.414;9.784;2023-05-07T14:00:03;14.00;99.90
6252;DHT22;3159;52.414;9.784;2023-05-07T14:02:30;14.10;99.90
6252;DHT22;3159;52.414;9.784;2023-05-07T14:04:59;14.70;99.90
6252;DHT22;3159;52.414;9.784;2023-05-07T14:07:26;14.40;99.90
6252;DHT22;3159;52.414;9.784;2023-05-07T14:09:54;14.30;99.90
6252;DHT22;3159;52.414;9.784;2023-05-07T14:12:21;14.00;99.90
6252;DHT22;3159;52.414;9.784;2023-05-07T14:14:48;14.00;99.90
6252;DHT22;3159;52.414;9.784;2023-05-07T14:17:15;13.80;99.90
6252;DHT22;3159;52.414;9.784;2023-05-07T14:19:42;13.90;99.90
6252;DHT22;3159;52.414;9.784;2023-05-07T14:22:12;13.90;99.90
6252;DHT22;3159;52.414;9.784;2023-05-07T14:24:39;14.00;99.90
6252;DHT22;3159;52.414;9.784;2023-05-07T14:27:06;14.20;99.90
6252;DHT22;3159;52.414;9.784;2023-05-07T14:29:33;14.10;99.90
6252;DHT22;3159;52.414;9.784;2023-05-07T14:32:01;14.30;99.90
6252;DHT22;3159;52.414;9.784;2023-05-07T14:34:28;14.40;99.90
6252;DHT22;3159;52.414;9.784;2023-05-07T14:36:55;14.50;99.90
6252;DHT22;3159;52.414;9.784;2023-05-07T14:39:23;14.30;99.90
6252;DHT22;3159;52.414;9.784;2023-05-07T14:41:51;14.20;99.90
6252;DHT22;3159;52.414;9.784;2023-05-07T14:44:20;14.30;99.90
6252;DHT22;3159;52.414;9.784;2023-05-07T14:46:47;14.40;99.90
6252;DHT22;3159;52.414;9.784;2023-05-07T14:49:14;14.30;99.90
6252;DHT22;3159;52.414;9.784;2023-05-07T14:51:43;14.00;99.90
6252;DHT22;3159;52.414;9.784;2023-05-07T14:54:10;14.00;99.90
6252;DHT22;3159;52.414;9.784;2023-05-07T14:56:39;14.00;99.90
6252;DHT22;3159;52.414;9.784;2023-05-07T14:59:06;14.20;99.90
6252;DHT22;3159;52.414;9.784;2023-05-07T15:01:34;14.00;99.90
6252;DHT22;3159;52.414;9.784;2023-05-07T15:04:02;14.10;99.90
6252;DHT22;3159;52.414;9.784;2023-05-07T15:06:29;13.80;99.90
6252;DHT22;3159;52.414;9.784;2023-05-07T15:08:56;13.90;99.90
6252;DHT22;3159;52.414;9.784;2023-05-07T15:11:23;13.60;99.90
6252;DHT22;3159;52.414;9.784;2023-05-07T15:13:52;13.80;99.90
6252;DHT22;3159;52.414;9.784;2023-05-07T15:16:19;14.00;99.90
6252;DHT22;3159;52.414;9.784;2023-05-07T15:18:45;14.00;99.90
6252;DHT22;3159;52.414;9.784;2023-05-07T15:21:13;14.10;99.90
6252;DHT22;3159;52.414;9.784;2023-05-07T15:23:40;14.20;99.90
6252;DHT22;3159;52.414;9.784;2023-05-07T15:26:09;14.10;99.90
6252;DHT22;3159;52.414;9.784;2023-05-07T15:28:36;14.20;99.90
6252;DHT22;3159;52.414;9.784;2023-05-07T15:31:05;14.10;99.90
6252;DHT22;3159;52.414;9.784;2023-05-07T15:33:32;14.60;99.90
6252;DHT22;3159;52.414;9.784;2023-05-07T15:35:59;14.50;99.90
6252;DHT22;3159;52.414;9.784;2023-05-07T15:38:29;14.60;99.90
6252;DHT22;3159;52.414;9.784;2023-05-07T15:40:56;14.20;99.90
6252;DHT22;3159;52.414;9.784;2023-05-07T15:43:23;14.40;99.90
6252;DHT22;3159;52.414;9.784;2023-05-07T15:45:51;14.10;99.90
6252;DHT22;3159;52.414;9.784;2023-05-07T15:48:20;14.00;99.90
6252;DHT22;3159;52.414;9.784;2023-05-07T15:50:47;14.30;99.90
6252;DHT22;3159;52.414;9.784;2023-05-07T15:53:14;14.30;99.90
6252;DHT22;3159;52.414;9.784;2023-05-07T15:55:41;14.20;99.90
6252;DHT22;3159;52.414;9.784;2023-05-07T15:58:09;14.40;99.90
6252;DHT22;3159;52.414;9.784;2023-05-07T16:00:37;14.10;99.90
6252;DHT22;3159;52.414;9.784;2023-05-07T16:03:05;14.10;99.90
6252;DHT22;3159;52.414;9.784;2023-05-07T16:05:34;14.20;99.90
6252;DHT22;3159;52.414;9.784;2023-05-07T16:08:02;14.00;99.90
6252;DHT22;3159;52.414;9.784;2023-05-07T16:10:29;13.80;99.90